sensor_id;sensor_type;location;lat;lon;timestamp;P1;durP1;ratioP1;P2;durP2;ratioP2
64887;SDS011;51386;53.082;8.816;2023-04-24T00:01:35;1.30;;;1.20;;
64887;SDS011;51386;53.082;8.816;2023-04-24T00:04:03;1.50;;;1.40;;
64887;SDS011;51386;53.082;8.816;2023-04-24T00:06:30;1.10;;;1.10;;
64887;SDS011;51386;53.082;8.816;2023-04-24T00:09:01;1.30;;;1.20;;
64887;SDS011;51386;53.082;8.816;2023-04-24T00:11:29;1.80;;;1.17;;
64887;SDS011;51386;53.082;8.816;2023-04-24T00:13:56;1.90;;;1.80;;
64887;SDS011;51386;53.082;8.816;2023-04-24T00:16:23;4.73;;;1.30;;
64887;SDS011;51386;53.082;8.816;2023-04-24T00:18:50;1.47;;;1.37;;
64887;SDS011;51386;53.082;8.816;2023-04-24T00:21:18;1.50;;;1.40;;
64887;SDS011;51386;53.082;8.816;2023-04-24T00:23:46;2.00;;;1.30;;
64887;SDS011;51386;53.082;8.816;2023-04-24T00:26:15;1.63;;;1.40;;
64887;SDS011;51386;53.082;8.816;2023-04-24T00:28:41;2.67;;;1.40;;
64887;SDS011;51386;53.082;8.816;2023-04-24T00:31:09;1.40;;;1.30;;
64887;SDS011;51386;53.082;8.816;2023-04-24T00:33:36;1.40;;;1.30;;
64887;SDS011;51386;53.082;8.816;2023-04-24T00:36:03;1.87;;;1.67;;
64887;SDS011;51386;53.082;8.816;2023-04-24T00:38:30;2.37;;;1.60;;
64887;SDS011;51386;53.082;8.816;2023-04-24T00:40:57;2.27;;;1.70;;
64887;SDS011;51386;53.082;8.816;2023-04-24T00:43:25;3.37;;;1.90;;
64887;SDS011;51386;53.082;8.816;2023-04-24T00:45:52;1.43;;;1.30;;
64887;SDS011;51386;53.082;8.816;2023-04-24T00:48:20;1.57;;;1.47;;
64887;SDS011;51386;53.082;8.816;2023-04-24T00:50:47;1.60;;;1.40;;
64887;SDS011;51386;53.082;8.816;2023-04-24T00:53:14;1.93;;;1.37;;
64887;SDS011;51386;53.082;8.816;2023-04-24T00:55:41;1.93;;;1.50;;
64887;SDS011;51386;53.082;8.816;2023-04-24T00:58:09;1.60;;;1.50;;
64887;SDS011;51386;53.082;8.816;2023-04-24T01:00:37;1.63;;;1.53;;
64887;SDS011;51386;53.082;8.816;2023-04-24T01:03:05;2.50;;;1.40;;
64887;SDS011;51386;53.082;8.816;2023-04-24T01:05:33;1.50;;;1.40;;
64887;SDS011;51386;53.082;8.816;2023-04-24T01:08:00;1.57;;;1.20;;
64887;SDS011;51386;53.082;8.816;2023-04-24T01:10:29;1.20;;;1.20;;
64887;SDS011;51386;53.082;8.816;2023-04-24T01:12:59;1.20;;;1.20;;
64887;SDS011;51386;53.082;8.816;2023-04-24T01:15:26;1.20;;;1.10;;
64887;SDS011;51386;53.082;8.816;2023-04-24T01:17:54;1.20;;;1.20;;
64887;SDS011;51386;53.082;8.816;2023-04-24T01:20:22;1.20;;;1.20;;
64887;SDS011;51386;53.082;8.816;2023-04-24T01:22:53;1.40;;;1.30;;
64887;SDS011;51386;53.082;8.816;2023-04-24T01:25:22;1.40;;;1.30;;
64887;SDS011;51386;53.082;8.816;2023-04-24T01:27:52;1.33;;;1.23;;
64887;SDS011;51386;53.082;8.816;2023-04-24T01:30:19;1.53;;;1.40;;
64887;SDS011;51386;53.082;8.816;2023-04-24T01:32:46;2.03;;;1.43;;
64887;SDS011;51386;53.082;8.816;2023-04-24T01:35:14;1.30;;;1.20;;
64887;SDS011;51386;53.082;8.816;2023-04-24T01:37:41;1.37;;;1.27;;
64887;SDS011;51386;53.082;8.816;2023-04-24T01:40:10;1.60;;;1.50;;
64887;SDS011;51386;53.082;8.816;2023-04-24T01:42:37;2.17;;;2.00;;
64887;SDS011;51386;53.082;8.816;2023-04-24T01:45:08;1.60;;;1.40;;
64887;SDS011;51386;53.082;8.816;2023-04-24T01:47:39;1.87;;;1.30;;
64887;SDS011;51386;53.082;8.816;2023-04-24T01:50:06;1.40;;;1.30;;
64887;SDS011;51386;53.082;8.816;2023-04-24T01:52:35;1.40;;;1.30;;
64887;SDS011;51386;53.082;8.816;2023-04-24T01:55:02;1.43;;;1.13;;
64887;SDS011;51386;53.082;8.816;2023-04-24T01:57:32;1.40;;;1.30;;
64887;SDS011;51386;53.082;8.816;2023-04-24T02:00:00;1.30;;;1.20;;
64887;SDS011;51386;53.082;8.816;2023-04-24T02:02:27;1.30;;;1.20;;
64887;SDS011;51386;53.082;8.816;2023-04-24T02:04:55;2.30;;;1.40;;
64887;SDS011;51386;53.082;8.816;2023-04-24T02:07:22;1.37;;;1.33;;
64887;SDS011;51386;53.082;8.816;2023-04-24T02:09:49;1.10;;;1.10;;
64887;SDS011;51386;53.082;8.816;2023-04-24T02:12:16;1.43;;;1.33;;
64887;SDS011;51386;53.082;8.816;2023-04-24T02:14:47;1.57;;;1.47;;
64887;SDS011;51386;53.082;8.816;2023-04-24T02:17:14;1.70;;;1.60;;
64887;SDS011;51386;53.082;8.816;2023-04-24T02:19:42;1.37;;;1.33;;
64887;SDS011;51386;53.082;8.816;2023-04-24T02:22:09;2.20;;;1.33;;
64887;SDS011;51386;53.082;8.816;2023-04-24T02:24:39;1.97;;;1.50;;
64887;SDS011;51386;53.082;8.816;2023-04-24T02:27:07;2.25;;;1.50;;
64887;SDS011;51386;53.082;8.816;2023-04-24T02:29:35;1.67;;;1.57;;
64887;SDS011;51386;53.082;8.816;2023-04-24T02:32:03;2.03;;;1.80;;
64887;SDS011;51386;53.082;8.816;2023-04-24T02:34:30;2.50;;;2.23;;
64887;SDS011;51386;53.082;8.816;2023-04-24T02:36:57;1.80;;;1.70;;
64887;SDS011;51386;53.082;8.816;2023-04-24T02:39:24;2.30;;;1.90;;
64887;SDS011;51386;53.082;8.816;2023-04-24T02:41:51;1.93;;;1.83;;
64887;SDS011;51386;53.082;8.816;2023-04-24T02:44:18;2.20;;;2.10;;
64887;SDS011;51386;53.082;8.816;2023-04-24T02:46:45;2.10;;;2.00;;
64887;SDS011;51386;53.082;8.816;2023-04-24T02:49:13;2.03;;;1.83;;
64887;SDS011;51386;53.082;8.816;2023-04-24T02:51:41;2.27;;;2.07;;
64887;SDS011;51386;53.082;8.816;2023-04-24T02:54:08;2.20;;;2.10;;
64887;SDS011;51386;53.082;8.816;2023-04-24T02:56:38;2.17;;;2.07;;
64887;SDS011;51386;53.082;8.816;2023-04-24T02:59:06;2.20;;;2.00;;
64887;SDS011;51386;53.082;8.816;2023-04-24T03:01:32;1.90;;;1.80;;
64887;SDS011;51386;53.082;8.816;2023-04-24T03:04:00;2.50;;;2.30;;
64887;SDS011;51386;53.082;8.816;2023-04-24T03:06:29;2.33;;;2.20;;
64887;SDS011;51386;53.082;8.816;2023-04-24T03:08:57;2.20;;;2.10;;
64887;SDS011;51386;53.082;8.816;2023-04-24T03:11:26;2.43;;;2.23;;
64887;SDS011;51386;53.082;8.816;2023-04-24T03:13:57;2.60;;;2.47;;
64887;SDS011;51386;53.082;8.816;2023-04-24T03:16:24;2.03;;;1.93;;
64887;SDS011;51386;53.082;8.816;2023-04-24T03:18:51;2.10;;;2.00;;
64887;SDS011;51386;53.082;8.816;2023-04-24T03:21:18;2.07;;;1.97;;
64887;SDS011;51386;53.082;8.816;2023-04-24T03:23:51;2.57;;;2.30;;
64887;SDS011;51386;53.082;8.816;2023-04-24T03:26:25;2.03;;;1.80;;
64887;SDS011;51386;53.082;8.816;2023-04-24T03:28:52;2.50;;;2.30;;
64887;SDS011;51386;53.082;8.816;2023-04-24T03:31:19;2.63;;;2.07;;
64887;SDS011;51386;53.082;8.816;2023-04-24T03:33:47;2.30;;;2.10;;
64887;SDS011;51386;53.082;8.816;2023-04-24T03:36:14;1.83;;;1.73;;
64887;SDS011;51386;53.082;8.816;2023-04-24T03:38:41;1.80;;;1.70;;
64887;SDS011;51386;53.082;8.816;2023-04-24T03:41:09;2.07;;;1.97;;
64887;SDS011;51386;53.082;8.816;2023-04-24T03:43:36;2.20;;;2.10;;
64887;SDS011;51386;53.082;8.816;2023-04-24T03:46:04;2.80;;;2.10;;
64887;SDS011;51386;53.082;8.816;2023-04-24T03:48:31;2.10;;;2.00;;
64887;SDS011;51386;53.082;8.816;2023-04-24T03:50:58;1.70;;;1.60;;
64887;SDS011;51386;53.082;8.816;2023-04-24T03:53:25;2.23;;;1.80;;
64887;SDS011;51386;53.082;8.816;2023-04-24T03:55:52;2.90;;;1.90;;
64887;SDS011;51386;53.082;8.816;2023-04-24T03:58:21;2.03;;;1.77;;
64887;SDS011;51386;53.082;8.816;2023-04-24T04:00:48;1.70;;;1.60;;
64887;SDS011;51386;53.082;8.816;2023-04-24T04:03:15;2.00;;;1.83;;
64887;SDS011;51386;53.082;8.816;2023-04-24T04:05:43;1.87;;;1.77;;
64887;SDS011;51386;53.082;8.816;2023-04-24T04:08:10;2.10;;;1.90;;
64887;SDS011;51386;53.082;8.816;2023-04-24T04:10:37;2.57;;;1.50;;
64887;SDS011;51386;53.082;8.816;2023-04-24T04:13:04;2.20;;;1.97;;
64887;SDS011;51386;53.082;8.816;2023-04-24T04:15:34;1.70;;;1.60;;
64887;SDS011;51386;53.082;8.816;2023-04-24T04:18:01;2.03;;;1.93;;
64887;SDS011;51386;53.082;8.816;2023-04-24T04:20:28;1.83;;;1.50;;
64887;SDS011;51386;53.082;8.816;2023-04-24T04:22:55;2.93;;;1.93;;
64887;SDS011;51386;53.082;8.816;2023-04-24T04:25:22;1.77;;;1.67;;
64887;SDS011;51386;53.082;8.816;2023-04-24T04:27:49;3.23;;;2.83;;
64887;SDS011;51386;53.082;8.816;2023-04-24T04:30:17;2.10;;;1.50;;
64887;SDS011;51386;53.082;8.816;2023-04-24T04:32:46;1.80;;;1.70;;
64887;SDS011;51386;53.082;8.816;2023-04-24T04:35:13;2.13;;;2.03;;
64887;SDS011;51386;53.082;8.816;2023-04-24T04:37:40;1.90;;;1.80;;
64887;SDS011;51386;53.082;8.816;2023-04-24T04:40:07;2.17;;;2.07;;
64887;SDS011;51386;53.082;8.816;2023-04-24T04:42:38;3.00;;;1.93;;
64887;SDS011;51386;53.082;8.816;2023-04-24T04:45:07;1.70;;;1.60;;
64887;SDS011;51386;53.082;8.816;2023-04-24T04:47:37;1.87;;;1.70;;
64887;SDS011;51386;53.082;8.816;2023-04-24T04:50:07;3.17;;;1.90;;
64887;SDS011;51386;53.082;8.816;2023-04-24T04:52:35;1.63;;;1.53;;
64887;SDS011;51386;53.082;8.816;2023-04-24T04:55:02;1.93;;;1.83;;
64887;SDS011;51386;53.082;8.816;2023-04-24T04:57:31;2.17;;;1.87;;
64887;SDS011;51386;53.082;8.816;2023-04-24T04:59:58;1.70;;;1.60;;
64887;SDS011;51386;53.082;8.816;2023-04-24T05:02:25;2.13;;;1.87;;
64887;SDS011;51386;53.082;8.816;2023-04-24T05:04:52;3.93;;;1.50;;
64887;SDS011;51386;53.082;8.816;2023-04-24T05:07:20;1.80;;;1.70;;
64887;SDS011;51386;53.082;8.816;2023-04-24T05:09:47;2.57;;;1.70;;
64887;SDS011;51386;53.082;8.816;2023-04-24T05:12:14;2.17;;;1.90;;
64887;SDS011;51386;53.082;8.816;2023-04-24T05:14:41;2.53;;;1.83;;
64887;SDS011;51386;53.082;8.816;2023-04-24T05:17:08;1.80;;;1.70;;
64887;SDS011;51386;53.082;8.816;2023-04-24T05:19:36;2.23;;;2.03;;
64887;SDS011;51386;53.082;8.816;2023-04-24T05:22:04;2.83;;;2.03;;
64887;SDS011;51386;53.082;8.816;2023-04-24T05:24:34;1.73;;;1.63;;
64887;SDS011;51386;53.082;8.816;2023-04-24T05:27:01;1.83;;;1.73;;
64887;SDS011;51386;53.082;8.816;2023-04-24T05:29:30;3.53;;;2.30;;
64887;SDS011;51386;53.082;8.816;2023-04-24T05:31:58;4.80;;;2.33;;
64887;SDS011;51386;53.082;8.816;2023-04-24T05:34:25;2.20;;;2.00;;
64887;SDS011;51386;53.082;8.816;2023-04-24T05:36:52;2.00;;;1.90;;
64887;SDS011;51386;53.082;8.816;2023-04-24T05:39:19;2.47;;;2.13;;
64887;SDS011;51386;53.082;8.816;2023-04-24T05:41:48;2.20;;;2.00;;
64887;SDS011;51386;53.082;8.816;2023-04-24T05:44:14;2.50;;;2.30;;
64887;SDS011;51386;53.082;8.816;2023-04-24T05:46:41;2.53;;;2.37;;
64887;SDS011;51386;53.082;8.816;2023-04-24T05:49:08;3.60;;;2.50;;
64887;SDS011;51386;53.082;8.816;2023-04-24T05:51:35;3.07;;;2.80;;
64887;SDS011;51386;53.082;8.816;2023-04-24T05:54:02;3.20;;;2.90;;
64887;SDS011;51386;53.082;8.816;2023-04-24T05:56:29;3.27;;;3.00;;
64887;SDS011;51386;53.082;8.816;2023-04-24T05:58:58;3.60;;;3.27;;
64887;SDS011;51386;53.082;8.816;2023-04-24T06:01:25;3.10;;;2.90;;
64887;SDS011;51386;53.082;8.816;2023-04-24T06:03:53;3.23;;;3.03;;
64887;SDS011;51386;53.082;8.816;2023-04-24T06:06:20;3.60;;;3.30;;
64887;SDS011;51386;53.082;8.816;2023-04-24T06:08:47;3.93;;;2.90;;
64887;SDS011;51386;53.082;8.816;2023-04-24T06:11:14;3.77;;;3.47;;
64887;SDS011;51386;53.082;8.816;2023-04-24T06:13:42;4.30;;;3.87;;
64887;SDS011;51386;53.082;8.816;2023-04-24T06:16:10;3.83;;;3.53;;
64887;SDS011;51386;53.082;8.816;2023-04-24T06:18:37;5.83;;;4.57;;
64887;SDS011;51386;53.082;8.816;2023-04-24T06:21:04;4.93;;;4.30;;
64887;SDS011;51386;53.082;8.816;2023-04-24T06:23:31;4.60;;;4.20;;
64887;SDS011;51386;53.082;8.816;2023-04-24T06:25:59;4.53;;;4.23;;
64887;SDS011;51386;53.082;8.816;2023-04-24T06:28:26;4.90;;;4.50;;
64887;SDS011;51386;53.082;8.816;2023-04-24T06:30:53;5.30;;;4.90;;
64887;SDS011;51386;53.082;8.816;2023-04-24T06:33:21;4.60;;;4.20;;
64887;SDS011;51386;53.082;8.816;2023-04-24T06:35:49;5.40;;;4.50;;
64887;SDS011;51386;53.082;8.816;2023-04-24T06:38:16;5.47;;;4.97;;
64887;SDS011;51386;53.082;8.816;2023-04-24T06:40:43;5.23;;;4.73;;
64887;SDS011;51386;53.082;8.816;2023-04-24T06:43:11;5.57;;;5.13;;
64887;SDS011;51386;53.082;8.816;2023-04-24T06:45:38;5.87;;;5.30;;
64887;SDS011;51386;53.082;8.816;2023-04-24T06:48:06;6.00;;;5.50;;
64887;SDS011;51386;53.082;8.816;2023-04-24T06:50:34;7.20;;;6.33;;
64887;SDS011;51386;53.082;8.816;2023-04-24T06:53:02;9.83;;;6.70;;
64887;SDS011;51386;53.082;8.816;2023-04-24T06:55:29;7.93;;;7.13;;
64887;SDS011;51386;53.082;8.816;2023-04-24T06:57:57;8.60;;;7.80;;
64887;SDS011;51386;53.082;8.816;2023-04-24T07:00:24;8.83;;;8.03;;
64887;SDS011;51386;53.082;8.816;2023-04-24T07:02:51;9.77;;;8.93;;
64887;SDS011;51386;53.082;8.816;2023-04-24T07:05:18;8.90;;;8.10;;
64887;SDS011;51386;53.082;8.816;2023-04-24T07:07:47;8.83;;;8.13;;
64887;SDS011;51386;53.082;8.816;2023-04-24T07:10:16;8.43;;;7.53;;
64887;SDS011;51386;53.082;8.816;2023-04-24T07:12:46;12.13;;;9.40;;
64887;SDS011;51386;53.082;8.816;2023-04-24T07:15:13;9.40;;;8.57;;
64887;SDS011;51386;53.082;8.816;2023-04-24T07:17:40;9.57;;;8.73;;
64887;SDS011;51386;53.082;8.816;2023-04-24T07:20:10;8.87;;;8.07;;
64887;SDS011;51386;53.082;8.816;2023-04-24T07:22:38;9.07;;;8.30;;
64887;SDS011;51386;53.082;8.816;2023-04-24T07:25:07;9.23;;;7.67;;
64887;SDS011;51386;53.082;8.816;2023-04-24T07:27:35;8.73;;;7.93;;
64887;SDS011;51386;53.082;8.816;2023-04-24T07:30:02;7.53;;;6.93;;
64887;SDS011;51386;53.082;8.816;2023-04-24T07:32:31;7.87;;;7.07;;
64887;SDS011;51386;53.082;8.816;2023-04-24T07:34:58;8.13;;;6.83;;
64887;SDS011;51386;53.082;8.816;2023-04-24T07:37:25;9.77;;;7.73;;
64887;SDS011;51386;53.082;8.816;2023-04-24T07:39:52;8.00;;;7.23;;
64887;SDS011;51386;53.082;8.816;2023-04-24T07:42:20;7.57;;;6.87;;
64887;SDS011;51386;53.082;8.816;2023-04-24T07:44:47;7.73;;;6.60;;
64887;SDS011;51386;53.082;8.816;2023-04-24T07:47:14;8.10;;;6.70;;
64887;SDS011;51386;53.082;8.816;2023-04-24T07:49:42;7.80;;;7.13;;
64887;SDS011;51386;53.082;8.816;2023-04-24T07:52:09;7.37;;;6.67;;
64887;SDS011;51386;53.082;8.816;2023-04-24T07:54:37;6.27;;;5.70;;
64887;SDS011;51386;53.082;8.816;2023-04-24T07:57:04;6.60;;;6.00;;
64887;SDS011;51386;53.082;8.816;2023-04-24T07:59:34;6.90;;;6.30;;
64887;SDS011;51386;53.082;8.816;2023-04-24T08:02:01;7.33;;;6.63;;
64887;SDS011;51386;53.082;8.816;2023-04-24T08:04:28;8.60;;;5.67;;
64887;SDS011;51386;53.082;8.816;2023-04-24T08:06:55;6.70;;;6.10;;
64887;SDS011;51386;53.082;8.816;2023-04-24T08:09:22;8.00;;;7.20;;
64887;SDS011;51386;53.082;8.816;2023-04-24T08:11:52;7.63;;;6.40;;
64887;SDS011;51386;53.082;8.816;2023-04-24T08:14:20;7.10;;;6.40;;
64887;SDS011;51386;53.082;8.816;2023-04-24T08:16:48;7.20;;;6.50;;
64887;SDS011;51386;53.082;8.816;2023-04-24T08:19:15;7.10;;;6.43;;
64887;SDS011;51386;53.082;8.816;2023-04-24T08:21:42;7.47;;;6.70;;
64887;SDS011;51386;53.082;8.816;2023-04-24T08:24:13;6.30;;;5.70;;
64887;SDS011;51386;53.082;8.816;2023-04-24T08:26:40;7.43;;;6.10;;
64887;SDS011;51386;53.082;8.816;2023-04-24T08:29:07;10.13;;;6.83;;
64887;SDS011;51386;53.082;8.816;2023-04-24T08:31:34;5.93;;;5.43;;
64887;SDS011;51386;53.082;8.816;2023-04-24T08:34:03;7.63;;;6.83;;
64887;SDS011;51386;53.082;8.816;2023-04-24T08:36:30;7.97;;;7.17;;
64887;SDS011;51386;53.082;8.816;2023-04-24T08:39:11;7.30;;;6.63;;
64887;SDS011;51386;53.082;8.816;2023-04-24T08:41:39;8.27;;;7.47;;
64887;SDS011;51386;53.082;8.816;2023-04-24T08:44:09;8.17;;;7.37;;
64887;SDS011;51386;53.082;8.816;2023-04-24T08:46:39;9.80;;;6.63;;
64887;SDS011;51386;53.082;8.816;2023-04-24T08:49:10;8.57;;;7.57;;
64887;SDS011;51386;53.082;8.816;2023-04-24T08:51:39;8.27;;;7.53;;
64887;SDS011;51386;53.082;8.816;2023-04-24T08:54:06;8.13;;;7.37;;
64887;SDS011;51386;53.082;8.816;2023-04-24T08:56:34;7.77;;;7.00;;
64887;SDS011;51386;53.082;8.816;2023-04-24T08:59:05;9.00;;;6.80;;
64887;SDS011;51386;53.082;8.816;2023-04-24T09:01:32;10.07;;;9.17;;
64887;SDS011;51386;53.082;8.816;2023-04-24T09:04:01;12.97;;;9.07;;
64887;SDS011;51386;53.082;8.816;2023-04-24T09:06:31;12.27;;;10.07;;
64887;SDS011;51386;53.082;8.816;2023-04-24T09:09:00;11.33;;;9.30;;
64887;SDS011;51386;53.082;8.816;2023-04-24T09:11:30;12.63;;;11.30;;
64887;SDS011;51386;53.082;8.816;2023-04-24T09:13:58;10.27;;;9.23;;
64887;SDS011;51386;53.082;8.816;2023-04-24T09:16:27;11.40;;;9.40;;
64887;SDS011;51386;53.082;8.816;2023-04-24T09:18:54;11.27;;;10.30;;
64887;SDS011;51386;53.082;8.816;2023-04-24T09:21:22;13.17;;;11.97;;
64887;SDS011;51386;53.082;8.816;2023-04-24T09:23:58;13.33;;;12.10;;
64887;SDS011;51386;53.082;8.816;2023-04-24T09:26:28;11.77;;;10.57;;
64887;SDS011;51386;53.082;8.816;2023-04-24T09:28:58;11.80;;;10.60;;
64887;SDS011;51386;53.082;8.816;2023-04-24T09:31:26;12.50;;;10.73;;
64887;SDS011;51386;53.082;8.816;2023-04-24T09:33:56;11.80;;;10.60;;
64887;SDS011;51386;53.082;8.816;2023-04-24T09:36:28;10.90;;;9.80;;
64887;SDS011;51386;53.082;8.816;2023-04-24T09:39:00;12.97;;;11.50;;
64887;SDS011;51386;53.082;8.816;2023-04-24T09:41:31;11.77;;;10.43;;
64887;SDS011;51386;53.082;8.816;2023-04-24T09:46:38;11.53;;;10.43;;
64887;SDS011;51386;53.082;8.816;2023-04-24T09:49:09;11.53;;;10.53;;
64887;SDS011;51386;53.082;8.816;2023-04-24T09:51:43;10.87;;;9.87;;
64887;SDS011;51386;53.082;8.816;2023-04-24T09:54:15;11.70;;;10.60;;
64887;SDS011;51386;53.082;8.816;2023-04-24T09:56:44;10.60;;;9.63;;
64887;SDS011;51386;53.082;8.816;2023-04-24T09:59:12;11.60;;;10.40;;
64887;SDS011;51386;53.082;8.816;2023-04-24T10:01:40;9.03;;;8.23;;
64887;SDS011;51386;53.082;8.816;2023-04-24T10:04:14;11.67;;;10.20;;
64887;SDS011;51386;53.082;8.816;2023-04-24T10:06:44;10.27;;;9.27;;
64887;SDS011;51386;53.082;8.816;2023-04-24T10:09:14;11.17;;;10.17;;
64887;SDS011;51386;53.082;8.816;2023-04-24T10:11:42;11.23;;;10.20;;
64887;SDS011;51386;53.082;8.816;2023-04-24T10:14:12;10.17;;;9.17;;
64887;SDS011;51386;53.082;8.816;2023-04-24T10:16:41;10.47;;;9.47;;
64887;SDS011;51386;53.082;8.816;2023-04-24T10:19:10;8.47;;;7.77;;
64887;SDS011;51386;53.082;8.816;2023-04-24T10:21:39;8.77;;;7.97;;
64887;SDS011;51386;53.082;8.816;2023-04-24T10:24:14;9.30;;;8.50;;
64887;SDS011;51386;53.082;8.816;2023-04-24T10:26:44;8.67;;;7.87;;
64887;SDS011;51386;53.082;8.816;2023-04-24T10:29:12;9.70;;;8.73;;
64887;SDS011;51386;53.082;8.816;2023-04-24T10:31:42;9.67;;;8.20;;
64887;SDS011;51386;53.082;8.816;2023-04-24T10:34:14;9.30;;;8.40;;
64887;SDS011;51386;53.082;8.816;2023-04-24T10:36:47;9.03;;;8.13;;
64887;SDS011;51386;53.082;8.816;2023-04-24T10:39:23;7.87;;;7.17;;
64887;SDS011;51386;53.082;8.816;2023-04-24T10:41:53;8.80;;;7.90;;
64887;SDS011;51386;53.082;8.816;2023-04-24T10:44:25;9.03;;;8.23;;
64887;SDS011;51386;53.082;8.816;2023-04-24T10:47:02;9.00;;;8.27;;
64887;SDS011;51386;53.082;8.816;2023-04-24T10:49:30;8.73;;;8.03;;
64887;SDS011;51386;53.082;8.816;2023-04-24T10:51:59;7.63;;;7.03;;
64887;SDS011;51386;53.082;8.816;2023-04-24T10:54:34;7.43;;;6.87;;
64887;SDS011;51386;53.082;8.816;2023-04-24T10:57:25;8.00;;;7.37;;
64887;SDS011;51386;53.082;8.816;2023-04-24T11:02:46;7.33;;;6.83;;
64887;SDS011;51386;53.082;8.816;2023-04-24T11:05:16;7.70;;;6.97;;
64887;SDS011;51386;53.082;8.816;2023-04-24T11:08:09;7.50;;;6.90;;
64887;SDS011;51386;53.082;8.816;2023-04-24T11:10:40;6.80;;;6.20;;
64887;SDS011;51386;53.082;8.816;2023-04-24T11:13:13;6.53;;;6.03;;
64887;SDS011;51386;53.082;8.816;2023-04-24T11:15:43;7.57;;;6.88;;
64887;SDS011;51386;53.082;8.816;2023-04-24T11:18:12;6.43;;;5.90;;
64887;SDS011;51386;53.082;8.816;2023-04-24T11:20:44;6.80;;;6.25;;
64887;SDS011;51386;53.082;8.816;2023-04-24T11:23:17;6.53;;;6.03;;
64887;SDS011;51386;53.082;8.816;2023-04-24T11:25:52;6.90;;;6.30;;
64887;SDS011;51386;53.082;8.816;2023-04-24T11:28:43;6.83;;;6.23;;
64887;SDS011;51386;53.082;8.816;2023-04-24T11:34:09;5.75;;;5.35;;
64887;SDS011;51386;53.082;8.816;2023-04-24T11:36:42;7.80;;;5.70;;
64887;SDS011;51386;53.082;8.816;2023-04-24T11:39:10;4.60;;;4.30;;
64887;SDS011;51386;53.082;8.816;2023-04-24T11:41:39;5.67;;;5.13;;
64887;SDS011;51386;53.082;8.816;2023-04-24T11:44:08;5.17;;;4.70;;
64887;SDS011;51386;53.082;8.816;2023-04-24T11:46:37;5.80;;;5.20;;
64887;SDS011;51386;53.082;8.816;2023-04-24T11:49:07;5.10;;;4.70;;
64887;SDS011;51386;53.082;8.816;2023-04-24T11:51:34;5.47;;;4.97;;
64887;SDS011;51386;53.082;8.816;2023-04-24T11:54:16;5.60;;;5.20;;
64887;SDS011;51386;53.082;8.816;2023-04-24T11:56:45;5.63;;;5.17;;
64887;SDS011;51386;53.082;8.816;2023-04-24T11:59:13;5.27;;;4.77;;
64887;SDS011;51386;53.082;8.816;2023-04-24T12:01:43;5.73;;;5.20;;
64887;SDS011;51386;53.082;8.816;2023-04-24T12:04:12;5.80;;;5.40;;
64887;SDS011;51386;53.082;8.816;2023-04-24T12:06:40;5.20;;;4.80;;
64887;SDS011;51386;53.082;8.816;2023-04-24T12:09:25;5.03;;;4.63;;
64887;SDS011;51386;53.082;8.816;2023-04-24T12:11:54;5.90;;;5.40;;
64887;SDS011;51386;53.082;8.816;2023-04-24T12:14:25;8.90;;;6.67;;
64887;SDS011;51386;53.082;8.816;2023-04-24T12:16:52;6.70;;;6.10;;
64887;SDS011;51386;53.082;8.816;2023-04-24T12:19:20;6.37;;;5.80;;
64887;SDS011;51386;53.082;8.816;2023-04-24T12:22:00;7.07;;;6.43;;
64887;SDS011;51386;53.082;8.816;2023-04-24T12:24:29;6.50;;;6.00;;
64887;SDS011;51386;53.082;8.816;2023-04-24T12:26:58;5.67;;;5.27;;
64887;SDS011;51386;53.082;8.816;2023-04-24T12:29:27;6.13;;;5.37;;
64887;SDS011;51386;53.082;8.816;2023-04-24T12:31:54;6.10;;;5.70;;
64887;SDS011;51386;53.082;8.816;2023-04-24T12:34:23;5.40;;;5.00;;
64887;SDS011;51386;53.082;8.816;2023-04-24T12:36:51;6.50;;;5.90;;
64887;SDS011;51386;53.082;8.816;2023-04-24T12:39:19;6.67;;;6.17;;
64887;SDS011;51386;53.082;8.816;2023-04-24T12:41:50;8.33;;;5.93;;
64887;SDS011;51386;53.082;8.816;2023-04-24T12:44:31;6.10;;;5.60;;
64887;SDS011;51386;53.082;8.816;2023-04-24T12:47:04;6.57;;;6.07;;
64887;SDS011;51386;53.082;8.816;2023-04-24T12:49:40;5.80;;;5.37;;
64887;SDS011;51386;53.082;8.816;2023-04-24T12:52:07;5.70;;;5.30;;
64887;SDS011;51386;53.082;8.816;2023-04-24T12:54:34;5.47;;;5.07;;
64887;SDS011;51386;53.082;8.816;2023-04-24T12:57:01;6.07;;;5.47;;
64887;SDS011;51386;53.082;8.816;2023-04-24T12:59:28;5.73;;;5.23;;
64887;SDS011;51386;53.082;8.816;2023-04-24T13:01:57;4.83;;;4.50;;
64887;SDS011;51386;53.082;8.816;2023-04-24T13:04:24;4.23;;;3.80;;
64887;SDS011;51386;53.082;8.816;2023-04-24T13:06:51;4.47;;;4.17;;
64887;SDS011;51386;53.082;8.816;2023-04-24T13:09:18;3.70;;;2.90;;
64887;SDS011;51386;53.082;8.816;2023-04-24T13:11:45;4.03;;;3.47;;
64887;SDS011;51386;53.082;8.816;2023-04-24T13:14:12;4.57;;;3.90;;
64887;SDS011;51386;53.082;8.816;2023-04-24T13:16:40;5.10;;;4.60;;
64887;SDS011;51386;53.082;8.816;2023-04-24T13:19:08;7.03;;;6.27;;
64887;SDS011;51386;53.082;8.816;2023-04-24T13:21:34;6.77;;;6.03;;
64887;SDS011;51386;53.082;8.816;2023-04-24T13:24:01;7.00;;;6.30;;
64887;SDS011;51386;53.082;8.816;2023-04-24T13:26:31;7.33;;;6.60;;
64887;SDS011;51386;53.082;8.816;2023-04-24T13:28:58;7.27;;;6.57;;
64887;SDS011;51386;53.082;8.816;2023-04-24T13:31:25;7.77;;;7.03;;
64887;SDS011;51386;53.082;8.816;2023-04-24T13:33:53;8.00;;;6.63;;
64887;SDS011;51386;53.082;8.816;2023-04-24T13:36:20;7.07;;;5.77;;
64887;SDS011;51386;53.082;8.816;2023-04-24T13:38:48;6.20;;;5.60;;
64887;SDS011;51386;53.082;8.816;2023-04-24T13:41:15;7.13;;;5.50;;
64887;SDS011;51386;53.082;8.816;2023-04-24T13:43:41;7.93;;;6.03;;
64887;SDS011;51386;53.082;8.816;2023-04-24T13:46:10;7.20;;;5.70;;
64887;SDS011;51386;53.082;8.816;2023-04-24T13:48:36;6.13;;;5.37;;
64887;SDS011;51386;53.082;8.816;2023-04-24T13:51:08;7.03;;;5.03;;
64887;SDS011;51386;53.082;8.816;2023-04-24T13:53:36;5.77;;;5.17;;
64887;SDS011;51386;53.082;8.816;2023-04-24T13:56:04;6.10;;;5.50;;
64887;SDS011;51386;53.082;8.816;2023-04-24T13:58:32;5.60;;;4.97;;
64887;SDS011;51386;53.082;8.816;2023-04-24T14:00:59;6.27;;;4.83;;
64887;SDS011;51386;53.082;8.816;2023-04-24T14:03:26;6.57;;;5.20;;
64887;SDS011;51386;53.082;8.816;2023-04-24T14:05:53;8.40;;;5.60;;
64887;SDS011;51386;53.082;8.816;2023-04-24T14:08:21;5.73;;;5.13;;
64887;SDS011;51386;53.082;8.816;2023-04-24T14:10:49;8.83;;;5.13;;
64887;SDS011;51386;53.082;8.816;2023-04-24T14:13:17;5.13;;;4.40;;
64887;SDS011;51386;53.082;8.816;2023-04-24T14:15:44;6.53;;;4.77;;
64887;SDS011;51386;53.082;8.816;2023-04-24T14:18:12;7.33;;;4.63;;
64887;SDS011;51386;53.082;8.816;2023-04-24T14:20:39;7.53;;;4.20;;
64887;SDS011;51386;53.082;8.816;2023-04-24T14:23:06;7.30;;;3.83;;
64887;SDS011;51386;53.082;8.816;2023-04-24T14:25:34;5.93;;;3.93;;
64887;SDS011;51386;53.082;8.816;2023-04-24T14:28:02;4.57;;;3.93;;
64887;SDS011;51386;53.082;8.816;2023-04-24T14:30:29;4.03;;;3.60;;
64887;SDS011;51386;53.082;8.816;2023-04-24T14:32:56;5.93;;;4.47;;
64887;SDS011;51386;53.082;8.816;2023-04-24T14:35:23;4.53;;;3.30;;
64887;SDS011;51386;53.082;8.816;2023-04-24T14:37:50;5.33;;;3.40;;
64887;SDS011;51386;53.082;8.816;2023-04-24T14:40:17;6.00;;;3.50;;
64887;SDS011;51386;53.082;8.816;2023-04-24T14:43:06;5.07;;;3.20;;
64887;SDS011;51386;53.082;8.816;2023-04-24T14:45:33;5.47;;;3.30;;
64887;SDS011;51386;53.082;8.816;2023-04-24T14:48:00;5.03;;;3.57;;
64887;SDS011;51386;53.082;8.816;2023-04-24T14:50:27;4.93;;;3.00;;
64887;SDS011;51386;53.082;8.816;2023-04-24T14:52:55;5.10;;;3.30;;
64887;SDS011;51386;53.082;8.816;2023-04-24T14:55:24;5.30;;;2.90;;
64887;SDS011;51386;53.082;8.816;2023-04-24T14:57:52;4.70;;;2.93;;
64887;SDS011;51386;53.082;8.816;2023-04-24T15:00:21;3.70;;;3.03;;
64887;SDS011;51386;53.082;8.816;2023-04-24T15:02:50;4.77;;;2.57;;